createdAt,value
2019-02-19T00:02:18.773Z,94.20
2019-02-19T00:04:47.515Z,94.30
2019-02-19T00:07:16.420Z,94.40
2019-02-19T00:09:45.087Z,94.30
2019-02-19T00:12:13.908Z,94.90
2019-02-19T00:14:42.658Z,94.90
2019-02-19T00:17:11.451Z,95.30
2019-02-19T00:19:40.280Z,95.30
2019-02-19T00:22:09.037Z,95.20
2019-02-19T00:24:37.877Z,94.80
2019-02-19T00:27:06.469Z,95.10
2019-02-19T00:29:35.365Z,95.20
2019-02-19T00:32:04.119Z,95.20
2019-02-19T00:34:32.859Z,95.10
2019-02-19T00:37:01.688Z,95.30
2019-02-19T00:39:30.459Z,94.90
2019-02-19T00:41:59.234Z,94.80
2019-02-19T00:44:28.055Z,94.70
2019-02-19T00:46:56.639Z,94.60
2019-02-19T00:49:25.375Z,94.70
2019-02-19T00:51:54.222Z,94.80
2019-02-19T00:54:22.861Z,94.90
2019-02-19T00:56:51.671Z,94.90
2019-02-19T00:59:20.529Z,95.10
2019-02-19T01:01:49.270Z,95.10
2019-02-19T01:04:18.161Z,95.10
2019-02-19T01:06:46.959Z,95.20
2019-02-19T01:09:15.752Z,95.20
2019-02-19T01:11:44.400Z,95.30
2019-02-19T01:14:13.297Z,95.40
2019-02-19T01:16:42.027Z,95.30
2019-02-19T01:19:10.816Z,95.30
2019-02-19T01:21:39.733Z,95.30
2019-02-19T01:24:08.531Z,95.50
2019-02-19T01:26:37.182Z,95.50
2019-02-19T01:29:05.952Z,96.10
2019-02-19T01:31:34.756Z,97.30
2019-02-19T01:34:03.463Z,97.20
2019-02-19T01:36:32.395Z,97.40
2019-02-19T01:39:01.271Z,97.80
2019-02-19T01:41:29.875Z,98.20
2019-02-19T01:43:58.634Z,98.70
2019-02-19T01:46:27.261Z,98.00
2019-02-19T01:48:56.120Z,98.50
2019-02-19T01:51:24.941Z,97.60
2019-02-19T01:53:53.860Z,98.80
2019-02-19T01:56:22.666Z,99.10
2019-02-19T01:58:51.604Z,99.70
2019-02-19T02:01:20.243Z,99.90
2019-02-19T02:03:49.000Z,99.90
2019-02-19T02:06:17.786Z,99.90
2019-02-19T02:08:46.481Z,99.90
2019-02-19T02:11:15.319Z,99.90
2019-02-19T02:13:44.057Z,99.90
2019-02-19T02:16:12.687Z,99.50
2019-02-19T02:18:41.487Z,98.80
2019-02-19T02:21:10.428Z,98.30
2019-02-19T02:23:39.190Z,97.80
2019-02-19T02:26:07.987Z,97.50
2019-02-19T02:28:36.777Z,97.50
2019-02-19T02:31:05.665Z,97.10
2019-02-19T02:33:34.391Z,97.00
2019-02-19T02:36:03.185Z,96.90
2019-02-19T02:38:31.919Z,96.80
2019-02-19T02:41:00.738Z,96.90
2019-02-19T02:43:29.491Z,96.90
2019-02-19T02:45:58.206Z,96.90
2019-02-19T02:48:26.911Z,96.70
2019-02-19T02:50:55.775Z,96.50
2019-02-19T02:53:24.590Z,96.50
2019-02-19T02:55:53.255Z,95.80
2019-02-19T02:58:21.915Z,95.40
2019-02-19T03:00:50.639Z,95.10
2019-02-19T03:03:19.366Z,95.00
2019-02-19T03:06:00.198Z,94.60
2019-02-19T03:08:28.981Z,94.30
2019-02-19T03:10:57.779Z,94.00
2019-02-19T03:13:26.564Z,93.70
2019-02-19T03:16:02.214Z,93.50
2019-02-19T03:18:25.655Z,93.30
2019-02-19T03:20:54.418Z,93.10
2019-02-19T03:23:23.190Z,93.10
2019-02-19T03:25:51.905Z,93.30
2019-02-19T03:28:20.649Z,93.30
2019-02-19T03:30:49.387Z,93.70
2019-02-19T03:33:18.225Z,93.80
2019-02-19T03:35:47.088Z,93.80
2019-02-19T03:38:15.947Z,93.60
2019-02-19T03:40:44.755Z,93.50
2019-02-19T03:43:13.519Z,93.80
2019-02-19T03:45:42.373Z,94.00
2019-02-19T03:48:11.218Z,94.30
2019-02-19T03:50:40.024Z,94.60
2019-02-19T03:53:08.975Z,94.90
2019-02-19T03:55:37.694Z,94.90
2019-02-19T03:58:06.548Z,95.10
2019-02-19T04:00:35.296Z,95.10
2019-02-19T04:03:04.167Z,95.30
2019-02-19T04:05:32.986Z,95.20
2019-02-19T04:08:01.788Z,95.10
2019-02-19T04:10:30.666Z,95.20
2019-02-19T04:12:59.466Z,95.10
2019-02-19T04:15:28.154Z,94.90
2019-02-19T04:17:56.988Z,94.80
2019-02-19T04:20:25.889Z,94.70
2019-02-19T04:22:54.768Z,95.00
2019-02-19T04:25:23.621Z,95.20
2019-02-19T04:27:52.345Z,95.30
2019-02-19T04:30:21.159Z,95.20
2019-02-19T04:32:49.881Z,95.40
2019-02-19T04:35:18.773Z,95.40
2019-02-19T04:37:47.597Z,95.70
2019-02-19T04:40:16.437Z,95.70
2019-02-19T04:42:45.249Z,95.80
2019-02-19T04:45:14.009Z,96.10
2019-02-19T04:47:42.654Z,96.40
2019-02-19T04:50:11.657Z,96.40
2019-02-19T04:52:40.435Z,96.60
2019-02-19T04:55:09.159Z,96.60
2019-02-19T04:57:37.933Z,96.10
2019-02-19T05:00:10.007Z,95.20
2019-02-19T05:02:38.671Z,94.80
2019-02-19T05:05:07.757Z,94.70
2019-02-19T05:07:36.566Z,94.40
2019-02-19T05:10:07.429Z,94.30
2019-02-19T05:12:36.338Z,94.00
2019-02-19T05:15:08.356Z,93.80
2019-02-19T05:17:37.019Z,93.80
2019-02-19T05:20:08.342Z,94.00
2019-02-19T05:22:37.231Z,94.10
2019-02-19T05:25:07.583Z,94.10
2019-02-19T05:27:36.409Z,94.20
2019-02-19T05:30:08.335Z,94.60
2019-02-19T05:32:37.076Z,94.80
2019-02-19T05:35:07.215Z,95.30
2019-02-19T05:37:35.971Z,95.20
2019-02-19T05:40:06.730Z,95.40
2019-02-19T05:42:35.585Z,95.80
2019-02-19T05:45:06.555Z,95.90
2019-02-19T05:47:35.472Z,96.00
2019-02-19T05:50:04.903Z,96.30
2019-02-19T05:52:33.597Z,96.50
2019-02-19T05:55:02.295Z,96.60
2019-02-19T05:57:31.058Z,96.50
2019-02-19T05:59:59.841Z,96.70
2019-02-19T06:02:28.677Z,96.50
2019-02-19T06:04:57.511Z,96.70
2019-02-19T06:07:26.326Z,96.60
2019-02-19T06:09:55.033Z,97.00
2019-02-19T06:12:23.870Z,96.50
2019-02-19T06:14:52.656Z,97.20
2019-02-19T06:17:21.496Z,97.40
2019-02-19T06:19:50.277Z,97.50
2019-02-19T06:22:19.144Z,97.50
2019-02-19T06:24:47.761Z,97.70
2019-02-19T06:27:16.584Z,97.60
2019-02-19T06:29:45.328Z,97.60
2019-02-19T06:32:14.063Z,97.30
2019-02-19T06:34:42.782Z,97.10
2019-02-19T06:37:11.598Z,96.90
2019-02-19T06:39:40.269Z,96.70
2019-02-19T06:42:09.114Z,96.60
2019-02-19T06:44:37.786Z,96.40
2019-02-19T06:47:07.080Z,96.20
2019-02-19T06:49:36.204Z,96.30
2019-02-19T06:52:04.932Z,96.30
2019-02-19T06:54:33.685Z,96.20
2019-02-19T06:57:02.646Z,96.20
2019-02-19T06:59:31.386Z,96.20
2019-02-19T07:02:01.758Z,96.30
2019-02-19T07:04:32.217Z,96.30
2019-02-19T07:07:01.009Z,96.10
2019-02-19T07:09:29.604Z,96.10
2019-02-19T07:11:58.893Z,96.00
2019-02-19T07:14:27.743Z,95.90
2019-02-19T07:16:56.480Z,95.90
2019-02-19T07:19:25.341Z,95.80
2019-02-19T07:21:54.201Z,95.70
2019-02-19T07:24:23.230Z,95.70
2019-02-19T07:26:52.175Z,95.50
2019-02-19T07:29:20.868Z,95.30
2019-02-19T07:31:49.755Z,95.40
2019-02-19T07:34:18.572Z,95.40
2019-02-19T07:36:47.476Z,95.20
2019-02-19T07:39:16.360Z,95.40
2019-02-19T07:41:45.143Z,95.10
2019-02-19T07:44:13.964Z,95.00
2019-02-19T07:46:43.010Z,94.60
2019-02-19T07:49:11.748Z,94.50
2019-02-19T07:51:40.515Z,94.20
2019-02-19T07:54:09.286Z,94.10
2019-02-19T07:56:38.156Z,93.80
2019-02-19T07:59:06.870Z,93.60
2019-02-19T08:01:36.281Z,93.40
2019-02-19T08:04:05.381Z,93.20
2019-02-19T08:06:34.110Z,93.00
2019-02-19T08:09:04.055Z,92.80
2019-02-19T08:11:32.797Z,92.30
2019-02-19T08:14:01.609Z,91.90
2019-02-19T08:16:30.312Z,91.70
2019-02-19T08:18:59.006Z,91.70
2019-02-19T08:21:27.860Z,91.00
2019-02-19T08:23:56.613Z,90.50
2019-02-19T08:26:25.439Z,91.00
2019-02-19T08:29:02.926Z,90.80
2019-02-19T08:31:24.596Z,89.80
2019-02-19T08:33:53.418Z,89.80
2019-02-19T08:36:22.317Z,90.20
2019-02-19T08:38:50.949Z,88.00
2019-02-19T08:41:19.925Z,89.10
2019-02-19T08:43:48.629Z,88.30
2019-02-19T08:46:17.516Z,88.70
2019-02-19T08:48:46.442Z,87.80
2019-02-19T08:51:15.274Z,88.60
2019-02-19T08:53:43.856Z,88.50
2019-02-19T08:56:12.708Z,85.90
2019-02-19T08:58:41.505Z,86.50
2019-02-19T09:01:10.203Z,86.40
2019-02-19T09:03:39.084Z,83.40
2019-02-19T09:06:07.906Z,82.30
2019-02-19T09:08:36.629Z,82.80
2019-02-19T09:11:05.505Z,82.00
2019-02-19T09:13:34.115Z,78.20
2019-02-19T09:16:02.951Z,77.20
2019-02-19T09:18:31.882Z,76.20
2019-02-19T09:21:00.690Z,74.70
2019-02-19T09:23:29.528Z,73.00
2019-02-19T09:25:58.398Z,71.50
2019-02-19T09:28:27.220Z,71.70
2019-02-19T09:34:25.066Z,72.60
2019-02-19T09:41:33.313Z,69.00
2019-02-19T09:44:02.030Z,69.60
2019-02-19T09:46:30.853Z,65.30
2019-02-19T09:48:59.641Z,66.20
2019-02-19T09:52:13.931Z,63.50
2019-02-19T09:54:42.779Z,66.90
2019-02-19T09:57:11.426Z,64.80
2019-02-19T09:59:40.298Z,63.50
2019-02-19T10:02:09.136Z,64.00
2019-02-19T10:04:37.861Z,63.70
2019-02-19T10:07:06.663Z,66.70
2019-02-19T10:09:35.534Z,64.40
2019-02-19T10:12:04.361Z,64.10
2019-02-19T10:14:33.039Z,61.50
2019-02-19T10:17:01.936Z,63.70
2019-02-19T10:19:30.598Z,65.30
2019-02-19T10:21:59.457Z,60.10
2019-02-19T10:24:28.131Z,58.80
2019-02-19T10:26:56.923Z,59.90
2019-02-19T10:29:25.820Z,57.80
2019-02-19T10:31:54.653Z,57.60
2019-02-19T10:34:23.424Z,56.30
2019-02-19T10:36:52.274Z,57.10
2019-02-19T10:39:21.016Z,57.00
2019-02-19T10:41:49.738Z,54.30
2019-02-19T10:44:18.483Z,52.40
2019-02-19T10:46:47.261Z,53.70
2019-02-19T10:49:16.108Z,52.50
2019-02-19T10:51:44.801Z,50.70
2019-02-19T10:54:13.552Z,51.30
2019-02-19T10:56:42.273Z,52.50
2019-02-19T10:59:10.987Z,54.70
2019-02-19T11:01:39.753Z,54.10
2019-02-19T11:04:08.539Z,51.80
2019-02-19T11:06:38.966Z,53.10
2019-02-19T11:09:07.904Z,51.00
2019-02-19T11:11:36.641Z,51.20
2019-02-19T11:14:05.435Z,50.20
2019-02-19T11:16:34.380Z,49.40
2019-02-19T11:19:03.029Z,51.10
2019-02-19T11:21:31.842Z,47.10
2019-02-19T11:24:00.673Z,47.90
2019-02-19T11:26:29.495Z,48.80
2019-02-19T11:28:58.330Z,48.90
2019-02-19T11:31:27.079Z,48.00
2019-02-19T11:33:55.805Z,45.10
2019-02-19T11:36:24.702Z,45.80
2019-02-19T11:38:53.643Z,48.20
2019-02-19T11:41:23.748Z,47.30
2019-02-19T11:43:52.410Z,47.20
2019-02-19T11:46:21.284Z,49.10
2019-02-19T11:48:51.134Z,47.90
2019-02-19T11:51:19.771Z,50.00
2019-02-19T11:53:48.632Z,49.60
2019-02-19T11:56:18.490Z,50.30
2019-02-19T11:58:47.306Z,51.20
2019-02-19T12:01:16.144Z,51.20
2019-02-19T12:03:44.911Z,54.10
2019-02-19T12:06:13.629Z,53.50
2019-02-19T12:08:42.475Z,52.80
2019-02-19T12:11:11.282Z,50.30
2019-02-19T12:13:40.165Z,48.60
2019-02-19T12:16:08.892Z,49.70
2019-02-19T12:18:45.624Z,48.40
2019-02-19T12:21:08.056Z,47.30
2019-02-19T12:23:36.816Z,47.70
2019-02-19T12:26:05.631Z,48.70
2019-02-19T12:28:34.338Z,48.20
2019-02-19T12:31:03.147Z,50.20
2019-02-19T12:33:31.844Z,48.70
2019-02-19T12:36:00.543Z,49.40
2019-02-19T12:38:29.357Z,51.90
2019-02-19T12:40:58.234Z,48.70
2019-02-19T12:43:27.236Z,48.90
2019-02-19T12:45:56.180Z,47.00
2019-02-19T12:48:24.983Z,48.80
2019-02-19T12:50:53.768Z,48.40
2019-02-19T12:53:22.552Z,49.90
2019-02-19T12:55:51.375Z,50.70
2019-02-19T12:58:20.164Z,51.00
2019-02-19T13:00:49.112Z,49.70
2019-02-19T13:03:18.042Z,48.50
2019-02-19T13:05:46.890Z,49.80
2019-02-19T13:08:15.871Z,50.90
2019-02-19T13:10:45.650Z,51.80
2019-02-19T13:13:15.563Z,51.70
2019-02-19T13:15:44.532Z,51.50
2019-02-19T13:18:13.224Z,52.00
2019-02-19T13:20:42.526Z,51.10
2019-02-19T13:23:11.791Z,51.90
2019-02-19T13:25:40.664Z,51.00
2019-02-19T13:28:09.586Z,51.70
2019-02-19T13:30:38.639Z,51.80
2019-02-19T13:33:07.539Z,52.50
2019-02-19T13:35:36.423Z,51.10
2019-02-19T13:38:05.413Z,52.50
2019-02-19T13:40:34.244Z,52.10
2019-02-19T13:43:03.095Z,52.90
2019-02-19T13:45:32.019Z,52.40
2019-02-19T13:48:05.928Z,50.70
2019-02-19T13:50:32.371Z,51.80
2019-02-19T13:53:20.903Z,51.10
2019-02-19T13:55:51.322Z,50.30
2019-02-19T13:58:20.193Z,52.10
2019-02-19T14:00:50.822Z,51.50
2019-02-19T14:03:19.646Z,53.30
2019-02-19T14:05:48.429Z,52.20
2019-02-19T14:08:17.416Z,50.60
2019-02-19T14:10:46.448Z,51.10
2019-02-19T14:13:16.716Z,51.80
2019-02-19T14:16:05.098Z,51.30
2019-02-19T14:18:35.605Z,51.40
2019-02-19T14:21:06.042Z,51.20
2019-02-19T14:23:39.127Z,50.10
2019-02-19T14:26:12.332Z,50.10
2019-02-19T14:28:51.470Z,49.60
2019-02-19T14:31:24.507Z,48.80
2019-02-19T14:33:58.603Z,50.00
2019-02-19T14:36:38.065Z,49.50
2019-02-19T14:39:09.522Z,47.80
2019-02-19T14:41:47.260Z,46.50
2019-02-19T14:44:24.011Z,47.80
2019-02-19T14:46:55.135Z,48.70
2019-02-19T14:49:47.313Z,50.50
2019-02-19T14:52:30.153Z,51.50
2019-02-19T14:55:09.772Z,54.20
2019-02-19T14:57:44.587Z,56.10
2019-02-19T15:00:32.005Z,60.60
2019-02-19T15:03:20.085Z,63.60
2019-02-19T15:05:50.518Z,67.50
2019-02-19T15:08:22.303Z,69.90
2019-02-19T15:10:59.120Z,73.30
2019-02-19T15:13:33.431Z,75.50
2019-02-19T15:16:22.657Z,77.40
2019-02-19T15:18:59.265Z,80.20
2019-02-19T15:21:42.375Z,79.30
2019-02-19T15:24:19.026Z,79.70
2019-02-19T15:27:06.507Z,79.60
2019-02-19T15:29:49.570Z,79.90
2019-02-19T15:32:36.307Z,81.70
2019-02-19T15:35:19.269Z,82.80
2019-02-19T15:38:00.191Z,84.80
2019-02-19T15:40:43.198Z,85.90
2019-02-19T15:43:29.852Z,86.30
2019-02-19T15:46:19.233Z,87.00
2019-02-19T15:49:09.269Z,87.10
2019-02-19T15:51:41.429Z,87.50
2019-02-19T15:54:14.647Z,87.60
2019-02-19T15:56:57.749Z,88.30
2019-02-19T15:59:34.144Z,88.80
2019-02-19T16:02:07.417Z,89.20
2019-02-19T16:04:39.084Z,90.10
2019-02-19T16:07:18.764Z,90.00
2019-02-19T16:09:54.095Z,90.10
2019-02-19T16:12:27.871Z,89.30
2019-02-19T16:15:16.184Z,88.40
2019-02-19T16:18:00.171Z,88.10
2019-02-19T16:20:47.131Z,88.00
2019-02-19T16:23:34.692Z,88.70
2019-02-19T16:26:24.306Z,87.90
2019-02-19T16:29:00.694Z,88.90
2019-02-19T16:31:50.663Z,89.20
2019-02-19T16:34:26.965Z,90.30
2019-02-19T16:37:01.145Z,90.90
2019-02-19T16:39:39.147Z,91.20
2019-02-19T16:42:13.672Z,91.30
2019-02-19T16:44:46.810Z,91.50
2019-02-19T16:47:29.451Z,91.60
2019-02-19T16:50:07.719Z,92.00
2019-02-19T16:52:34.694Z,91.80
2019-02-19T16:55:24.885Z,92.10
2019-02-19T16:57:55.361Z,92.60
2019-02-19T17:00:44.995Z,93.10
2019-02-19T17:03:24.537Z,93.60
2019-02-19T17:05:57.773Z,94.20
2019-02-19T17:08:30.033Z,94.00
2019-02-19T17:11:00.552Z,93.70
2019-02-19T17:13:37.088Z,93.40
2019-02-19T17:16:26.738Z,93.00
2019-02-19T17:18:59.144Z,93.60
2019-02-19T17:21:37.572Z,93.60
2019-02-19T17:24:13.502Z,94.10
2019-02-19T17:26:52.445Z,94.70
2019-02-19T17:29:26.483Z,95.00
2019-02-19T17:32:02.754Z,95.40
2019-02-19T17:34:54.457Z,95.30
2019-02-19T17:37:25.523Z,95.60
2019-02-19T17:40:03.177Z,95.80
2019-02-19T17:42:41.810Z,95.90
2019-02-19T17:45:23.584Z,96.10
2019-02-19T17:47:57.581Z,97.00
2019-02-19T17:50:38.470Z,97.20
2019-02-19T17:53:18.410Z,98.10
2019-02-19T17:55:59.194Z,98.80
2019-02-19T17:58:34.368Z,99.60
2019-02-19T18:01:10.675Z,99.90
2019-02-19T18:04:03.527Z,99.90
2019-02-19T18:06:50.751Z,99.90
2019-02-19T18:09:38.807Z,99.90
2019-02-19T18:12:17.395Z,99.90
2019-02-19T18:15:00.011Z,99.90
2019-02-19T18:17:32.905Z,99.90
2019-02-19T18:20:03.949Z,99.90
2019-02-19T18:22:33.032Z,99.90
2019-02-19T18:25:03.597Z,99.90
2019-02-19T18:27:33.525Z,99.90
2019-02-19T18:30:04.871Z,99.90
2019-02-19T18:32:33.930Z,99.90
2019-02-19T18:35:03.036Z,99.90
2019-02-19T18:37:34.147Z,99.90
2019-02-19T18:40:05.331Z,99.90
2019-02-19T18:42:36.860Z,99.90
2019-02-19T18:45:11.221Z,99.90
2019-02-19T18:47:41.398Z,99.90
2019-02-19T18:50:10.782Z,99.90
2019-02-19T18:52:41.215Z,99.90
2019-02-19T18:55:10.098Z,99.90
2019-02-19T18:57:40.177Z,99.90
2019-02-19T19:00:13.092Z,99.90
2019-02-19T19:02:42.021Z,99.90
2019-02-19T19:05:12.144Z,99.90
2019-02-19T19:07:46.585Z,99.90
2019-02-19T19:10:15.628Z,99.90
2019-02-19T19:12:45.664Z,99.90
2019-02-19T19:15:16.339Z,99.90
2019-02-19T19:17:46.305Z,99.90
2019-02-19T19:20:15.425Z,99.90
2019-02-19T19:22:47.036Z,99.90
2019-02-19T19:25:15.965Z,99.90
2019-02-19T19:27:47.512Z,99.90
2019-02-19T19:30:19.403Z,99.90
2019-02-19T19:32:54.925Z,99.90
2019-02-19T19:35:24.526Z,99.90
2019-02-19T19:37:53.424Z,99.90
2019-02-19T19:40:24.895Z,99.90
2019-02-19T19:42:54.351Z,99.90
2019-02-19T19:45:24.236Z,99.90
2019-02-19T19:47:54.211Z,99.90
2019-02-19T19:50:25.796Z,99.90
2019-02-19T19:52:56.290Z,99.90
2019-02-19T19:55:25.176Z,99.90
2019-02-19T19:57:54.163Z,99.90
2019-02-19T20:00:25.719Z,99.90
2019-02-19T20:02:55.744Z,99.90
2019-02-19T20:05:26.496Z,99.90
2019-02-19T20:08:01.281Z,99.90
2019-02-19T20:10:32.520Z,99.90
2019-02-19T20:13:01.713Z,99.90
2019-02-19T20:15:31.033Z,99.90
2019-02-19T20:18:03.524Z,99.90
2019-02-19T20:20:32.940Z,99.90
2019-02-19T20:23:03.363Z,99.90
2019-02-19T20:25:33.858Z,99.90
2019-02-19T20:28:06.130Z,99.90
2019-02-19T20:30:36.745Z,99.90
2019-02-19T20:33:19.501Z,99.90
2019-02-19T20:35:51.601Z,99.90
2019-02-19T20:38:27.654Z,99.90
2019-02-19T20:40:56.628Z,99.90
2019-02-19T20:43:33.978Z,99.90
2019-02-19T20:46:06.450Z,99.90
2019-02-19T20:48:40.962Z,99.90
2019-02-19T20:51:12.926Z,99.90
2019-02-19T20:53:56.461Z,99.90
2019-02-19T20:56:22.491Z,99.90
2019-02-19T20:58:55.679Z,99.90
2019-02-19T21:01:28.061Z,99.90
2019-02-19T21:04:01.058Z,99.90
2019-02-19T21:06:41.321Z,99.90
2019-02-19T21:09:12.814Z,99.90
2019-02-19T21:11:47.283Z,99.90
2019-02-19T21:14:16.148Z,99.90
2019-02-19T21:16:53.125Z,99.90
2019-02-19T21:19:19.632Z,99.90
2019-02-19T21:21:49.889Z,99.90
2019-02-19T21:24:25.256Z,99.90
2019-02-19T21:26:58.957Z,99.90
2019-02-19T21:29:37.921Z,99.90
2019-02-19T21:32:11.305Z,99.90
2019-02-19T21:34:44.640Z,99.90
2019-02-19T21:37:15.273Z,99.90
2019-02-19T21:39:54.799Z,99.90
2019-02-19T21:42:23.679Z,99.90
2019-02-19T21:44:58.298Z,99.90
2019-02-19T21:47:29.099Z,99.90
2019-02-19T21:50:03.300Z,99.90
2019-02-19T21:52:37.034Z,99.90
2019-02-19T21:55:16.051Z,99.90
2019-02-19T21:57:49.500Z,99.90
2019-02-19T22:00:22.223Z,99.90
2019-02-19T22:02:52.936Z,99.90
2019-02-19T22:05:23.713Z,99.90
2019-02-19T22:07:54.015Z,99.90
2019-02-19T22:10:25.579Z,99.90
2019-02-19T22:12:55.945Z,99.90
2019-02-19T22:15:27.374Z,99.90
2019-02-19T22:17:56.507Z,99.90
2019-02-19T22:20:43.280Z,99.90
2019-02-19T22:23:14.003Z,99.90
2019-02-19T22:25:42.928Z,99.90
2019-02-19T22:28:14.686Z,99.90
2019-02-19T22:30:45.037Z,99.90
2019-02-19T22:33:14.932Z,99.90
2019-02-19T22:35:44.510Z,99.90
2019-02-19T22:38:14.932Z,99.90
2019-02-19T22:40:43.822Z,99.90
2019-02-19T22:43:12.737Z,99.90
2019-02-19T22:45:41.742Z,99.90
2019-02-19T22:48:10.975Z,99.90
2019-02-19T22:50:39.859Z,99.90
2019-02-19T22:53:10.306Z,99.90
2019-02-19T22:55:43.599Z,99.90
2019-02-19T22:58:12.455Z,99.90
2019-02-19T23:00:46.000Z,99.90
2019-02-19T23:03:15.757Z,99.90
2019-02-19T23:05:44.648Z,99.90
2019-02-19T23:08:13.610Z,99.90
2019-02-19T23:10:42.508Z,99.90
2019-02-19T23:13:11.260Z,99.90
2019-02-19T23:15:40.136Z,99.90
2019-02-19T23:18:08.842Z,99.90
2019-02-19T23:20:37.635Z,99.90
2019-02-19T23:23:06.550Z,99.90
2019-02-19T23:25:35.159Z,99.90
2019-02-19T23:28:04.003Z,99.90
2019-02-19T23:30:33.748Z,99.90
2019-02-19T23:33:02.634Z,99.90
2019-02-19T23:35:36.034Z,99.90
2019-02-19T23:38:04.907Z,99.90
2019-02-19T23:40:33.665Z,99.90
2019-02-19T23:43:02.498Z,99.90
2019-02-19T23:45:31.357Z,99.90
2019-02-19T23:48:00.113Z,99.90
2019-02-19T23:50:29.011Z,99.90
2019-02-19T23:52:57.837Z,99.90
2019-02-19T23:55:26.574Z,99.90
2019-02-19T23:57:55.263Z,99.90
